sensor_id;sensor_type;location;lat;lon;timestamp;P1;durP1;ratioP1;P2;durP2;ratioP2
67930;SDS011;63902;52.000;5.954;2023-08-30T00:40:29;7.60;;;3.92;;
67930;SDS011;63902;52.000;5.954;2023-08-30T00:41:29;7.63;;;4.55;;
67930;SDS011;63902;52.000;5.954;2023-08-30T00:42:29;7.18;;;4.18;;
67930;SDS011;63902;52.000;5.954;2023-08-30T00:43:30;8.75;;;4.70;;
67930;SDS011;63902;52.000;5.954;2023-08-30T00:44:30;8.18;;;4.90;;
67930;SDS011;63902;52.000;5.954;2023-08-30T00:45:31;7.28;;;4.38;;
67930;SDS011;63902;52.000;5.954;2023-08-30T00:46:32;8.35;;;4.72;;
67930;SDS011;63902;52.000;5.954;2023-08-30T00:47:33;7.47;;;4.43;;
67930;SDS011;63902;52.000;5.954;2023-08-30T00:48:34;6.38;;;4.55;;
67930;SDS011;63902;52.000;5.954;2023-08-30T00:49:34;9.55;;;4.43;;
67930;SDS011;63902;52.000;5.954;2023-08-30T00:50:35;6.13;;;4.78;;
67930;SDS011;63902;52.000;5.954;2023-08-30T00:51:35;7.45;;;4.22;;
67930;SDS011;63902;52.000;5.954;2023-08-30T00:52:36;8.10;;;4.80;;
67930;SDS011;63902;52.000;5.954;2023-08-30T00:53:37;6.78;;;4.25;;
67930;SDS011;63902;52.000;5.954;2023-08-30T00:54:38;7.95;;;3.85;;
67930;SDS011;63902;52.000;5.954;2023-08-30T00:55:41;6.82;;;4.35;;
67930;SDS011;63902;52.000;5.954;2023-08-30T00:56:42;7.85;;;4.43;;
67930;SDS011;63902;52.000;5.954;2023-08-30T00:57:43;6.43;;;4.22;;
67930;SDS011;63902;52.000;5.954;2023-08-30T00:58:44;6.95;;;4.53;;
67930;SDS011;63902;52.000;5.954;2023-08-30T00:59:44;8.20;;;4.80;;
67930;SDS011;63902;52.000;5.954;2023-08-30T01:00:45;6.90;;;4.88;;
67930;SDS011;63902;52.000;5.954;2023-08-30T01:01:45;7.22;;;4.78;;
67930;SDS011;63902;52.000;5.954;2023-08-30T01:02:47;7.63;;;4.85;;
67930;SDS011;63902;52.000;5.954;2023-08-30T01:03:47;7.35;;;4.75;;
67930;SDS011;63902;52.000;5.954;2023-08-30T01:04:48;6.97;;;4.20;;
67930;SDS011;63902;52.000;5.954;2023-08-30T01:05:49;6.13;;;4.60;;
67930;SDS011;63902;52.000;5.954;2023-08-30T01:06:50;9.18;;;6.07;;
67930;SDS011;63902;52.000;5.954;2023-08-30T01:07:50;10.10;;;5.03;;
67930;SDS011;63902;52.000;5.954;2023-08-30T01:08:52;7.72;;;4.75;;
67930;SDS011;63902;52.000;5.954;2023-08-30T01:09:52;5.70;;;4.00;;
67930;SDS011;63902;52.000;5.954;2023-08-30T01:10:56;6.95;;;4.85;;
67930;SDS011;63902;52.000;5.954;2023-08-30T01:12:03;6.72;;;4.43;;
67930;SDS011;63902;52.000;5.954;2023-08-30T01:13:09;7.20;;;4.55;;
67930;SDS011;63902;52.000;5.954;2023-08-30T01:14:17;8.05;;;4.72;;
67930;SDS011;63902;52.000;5.954;2023-08-30T01:15:21;8.05;;;5.00;;
67930;SDS011;63902;52.000;5.954;2023-08-30T01:16:23;7.75;;;4.60;;
67930;SDS011;63902;52.000;5.954;2023-08-30T01:17:24;10.43;;;5.18;;
67930;SDS011;63902;52.000;5.954;2023-08-30T01:18:29;8.80;;;4.68;;
67930;SDS011;63902;52.000;5.954;2023-08-30T01:19:38;9.60;;;4.40;;
67930;SDS011;63902;52.000;5.954;2023-08-30T01:20:42;6.57;;;4.60;;
67930;SDS011;63902;52.000;5.954;2023-08-30T01:21:47;5.80;;;4.43;;
67930;SDS011;63902;52.000;5.954;2023-08-30T01:22:55;13.13;;;4.60;;
67930;SDS011;63902;52.000;5.954;2023-08-30T01:24:00;6.43;;;4.28;;
67930;SDS011;63902;52.000;5.954;2023-08-30T01:25:12;5.75;;;4.32;;
67930;SDS011;63902;52.000;5.954;2023-08-30T01:26:44;7.38;;;4.85;;
67930;SDS011;63902;52.000;5.954;2023-08-30T01:27:52;6.55;;;4.55;;
67930;SDS011;63902;52.000;5.954;2023-08-30T01:28:54;7.15;;;4.03;;
67930;SDS011;63902;52.000;5.954;2023-08-30T01:30:01;9.68;;;4.68;;
67930;SDS011;63902;52.000;5.954;2023-08-30T01:31:02;8.35;;;4.43;;
67930;SDS011;63902;52.000;5.954;2023-08-30T01:32:04;8.30;;;4.45;;
67930;SDS011;63902;52.000;5.954;2023-08-30T01:33:07;6.55;;;4.57;;
67930;SDS011;63902;52.000;5.954;2023-08-30T01:34:08;8.15;;;5.03;;
67930;SDS011;63902;52.000;5.954;2023-08-30T01:35:09;7.25;;;4.63;;
67930;SDS011;63902;52.000;5.954;2023-08-30T01:36:10;6.60;;;3.80;;
67930;SDS011;63902;52.000;5.954;2023-08-30T01:37:12;9.07;;;4.63;;
67930;SDS011;63902;52.000;5.954;2023-08-30T01:38:13;6.50;;;4.40;;
67930;SDS011;63902;52.000;5.954;2023-08-30T01:39:14;6.60;;;4.07;;
67930;SDS011;63902;52.000;5.954;2023-08-30T01:40:16;7.20;;;3.92;;
67930;SDS011;63902;52.000;5.954;2023-08-30T01:41:18;7.07;;;4.78;;
67930;SDS011;63902;52.000;5.954;2023-08-30T01:42:19;6.43;;;4.47;;
67930;SDS011;63902;52.000;5.954;2023-08-30T01:43:22;7.20;;;4.18;;
67930;SDS011;63902;52.000;5.954;2023-08-30T01:44:25;7.40;;;4.57;;
67930;SDS011;63902;52.000;5.954;2023-08-30T01:45:26;10.15;;;4.53;;
67930;SDS011;63902;52.000;5.954;2023-08-30T01:46:28;6.95;;;4.28;;
67930;SDS011;63902;52.000;5.954;2023-08-30T01:47:29;6.32;;;4.10;;
67930;SDS011;63902;52.000;5.954;2023-08-30T01:48:30;11.40;;;4.22;;
67930;SDS011;63902;52.000;5.954;2023-08-30T01:49:32;8.77;;;4.55;;
67930;SDS011;63902;52.000;5.954;2023-08-30T01:50:33;9.57;;;4.80;;
67930;SDS011;63902;52.000;5.954;2023-08-30T01:51:34;9.32;;;4.45;;
67930;SDS011;63902;52.000;5.954;2023-08-30T01:52:35;8.68;;;4.22;;
67930;SDS011;63902;52.000;5.954;2023-08-30T01:53:36;7.15;;;4.88;;
67930;SDS011;63902;52.000;5.954;2023-08-30T01:54:37;12.30;;;4.47;;
67930;SDS011;63902;52.000;5.954;2023-08-30T01:55:41;9.48;;;5.00;;
67930;SDS011;63902;52.000;5.954;2023-08-30T01:56:43;6.28;;;4.18;;
67930;SDS011;63902;52.000;5.954;2023-08-30T01:57:43;13.25;;;4.75;;
67930;SDS011;63902;52.000;5.954;2023-08-30T01:58:45;10.88;;;4.55;;
67930;SDS011;63902;52.000;5.954;2023-08-30T01:59:46;7.72;;;4.18;;
67930;SDS011;63902;52.000;5.954;2023-08-30T02:00:46;6.05;;;3.97;;
67930;SDS011;63902;52.000;5.954;2023-08-30T02:01:47;6.55;;;4.15;;
67930;SDS011;63902;52.000;5.954;2023-08-30T02:02:47;6.65;;;4.50;;
67930;SDS011;63902;52.000;5.954;2023-08-30T02:03:48;7.85;;;5.10;;
67930;SDS011;63902;52.000;5.954;2023-08-30T02:04:48;7.45;;;4.72;;
67930;SDS011;63902;52.000;5.954;2023-08-30T02:05:52;6.55;;;4.20;;
67930;SDS011;63902;52.000;5.954;2023-08-30T02:07:01;7.57;;;4.88;;
67930;SDS011;63902;52.000;5.954;2023-08-30T02:08:04;9.75;;;4.50;;
67930;SDS011;63902;52.000;5.954;2023-08-30T02:09:17;12.70;;;4.88;;
67930;SDS011;63902;52.000;5.954;2023-08-30T02:10:22;9.05;;;4.53;;
67930;SDS011;63902;52.000;5.954;2023-08-30T02:11:26;7.20;;;4.65;;
67930;SDS011;63902;52.000;5.954;2023-08-30T02:12:29;9.98;;;4.70;;
67930;SDS011;63902;52.000;5.954;2023-08-30T02:13:46;8.40;;;4.40;;
67930;SDS011;63902;52.000;5.954;2023-08-30T02:14:47;6.78;;;4.55;;
67930;SDS011;63902;52.000;5.954;2023-08-30T02:15:49;8.18;;;4.97;;
67930;SDS011;63902;52.000;5.954;2023-08-30T02:16:50;6.82;;;4.68;;
67930;SDS011;63902;52.000;5.954;2023-08-30T02:17:51;6.57;;;4.97;;
67930;SDS011;63902;52.000;5.954;2023-08-30T02:18:53;7.70;;;5.30;;
67930;SDS011;63902;52.000;5.954;2023-08-30T02:19:54;12.07;;;5.53;;
67930;SDS011;63902;52.000;5.954;2023-08-30T02:20:54;6.93;;;4.68;;
67930;SDS011;63902;52.000;5.954;2023-08-30T02:21:55;7.15;;;4.78;;
67930;SDS011;63902;52.000;5.954;2023-08-30T02:22:57;8.93;;;4.65;;
67930;SDS011;63902;52.000;5.954;2023-08-30T02:23:58;8.20;;;5.30;;
67930;SDS011;63902;52.000;5.954;2023-08-30T02:24:59;6.03;;;4.32;;
67930;SDS011;63902;52.000;5.954;2023-08-30T02:25:59;9.38;;;4.80;;
67930;SDS011;63902;52.000;5.954;2023-08-30T02:27:00;7.25;;;4.65;;
67930;SDS011;63902;52.000;5.954;2023-08-30T02:28:00;8.00;;;4.57;;
67930;SDS011;63902;52.000;5.954;2023-08-30T02:29:02;6.25;;;4.30;;
67930;SDS011;63902;52.000;5.954;2023-08-30T02:30:04;8.82;;;4.53;;
67930;SDS011;63902;52.000;5.954;2023-08-30T02:31:05;6.53;;;4.22;;
67930;SDS011;63902;52.000;5.954;2023-08-30T02:32:06;6.00;;;4.43;;
67930;SDS011;63902;52.000;5.954;2023-08-30T02:33:06;6.68;;;4.63;;
67930;SDS011;63902;52.000;5.954;2023-08-30T02:34:07;7.63;;;4.35;;
67930;SDS011;63902;52.000;5.954;2023-08-30T02:35:08;7.72;;;4.18;;
67930;SDS011;63902;52.000;5.954;2023-08-30T02:36:08;7.18;;;4.57;;
67930;SDS011;63902;52.000;5.954;2023-08-30T02:37:09;9.48;;;5.05;;
67930;SDS011;63902;52.000;5.954;2023-08-30T02:38:09;6.13;;;3.92;;
67930;SDS011;63902;52.000;5.954;2023-08-30T02:39:10;7.60;;;4.53;;
67930;SDS011;63902;52.000;5.954;2023-08-30T02:40:11;11.55;;;4.70;;
67930;SDS011;63902;52.000;5.954;2023-08-30T02:41:12;7.93;;;4.70;;
67930;SDS011;63902;52.000;5.954;2023-08-30T02:42:12;11.50;;;4.88;;
67930;SDS011;63902;52.000;5.954;2023-08-30T02:43:13;9.18;;;4.80;;
67930;SDS011;63902;52.000;5.954;2023-08-30T02:44:15;6.70;;;4.82;;
67930;SDS011;63902;52.000;5.954;2023-08-30T02:45:15;7.90;;;4.50;;
67930;SDS011;63902;52.000;5.954;2023-08-30T02:46:16;8.93;;;4.75;;
67930;SDS011;63902;52.000;5.954;2023-08-30T02:47:16;9.60;;;4.90;;
67930;SDS011;63902;52.000;5.954;2023-08-30T02:48:17;8.65;;;4.32;;
67930;SDS011;63902;52.000;5.954;2023-08-30T02:49:17;8.85;;;4.70;;
67930;SDS011;63902;52.000;5.954;2023-08-30T02:50:18;6.43;;;4.80;;
67930;SDS011;63902;52.000;5.954;2023-08-30T02:51:18;7.82;;;5.00;;
67930;SDS011;63902;52.000;5.954;2023-08-30T02:52:19;9.07;;;4.50;;
67930;SDS011;63902;52.000;5.954;2023-08-30T02:53:19;10.88;;;5.03;;
67930;SDS011;63902;52.000;5.954;2023-08-30T02:54:20;8.38;;;5.20;;
67930;SDS011;63902;52.000;5.954;2023-08-30T02:55:20;6.43;;;4.85;;
67930;SDS011;63902;52.000;5.954;2023-08-30T02:56:21;7.50;;;5.18;;
67930;SDS011;63902;52.000;5.954;2023-08-30T02:57:21;7.82;;;5.18;;
67930;SDS011;63902;52.000;5.954;2023-08-30T02:58:22;9.68;;;4.65;;
67930;SDS011;63902;52.000;5.954;2023-08-30T02:59:24;7.43;;;5.07;;
67930;SDS011;63902;52.000;5.954;2023-08-30T03:00:24;8.75;;;4.88;;
67930;SDS011;63902;52.000;5.954;2023-08-30T03:01:25;6.88;;;5.05;;
67930;SDS011;63902;52.000;5.954;2023-08-30T03:02:25;10.75;;;5.20;;
67930;SDS011;63902;52.000;5.954;2023-08-30T03:03:26;8.90;;;4.35;;
67930;SDS011;63902;52.000;5.954;2023-08-30T03:04:27;7.63;;;4.38;;
67930;SDS011;63902;52.000;5.954;2023-08-30T03:05:27;7.47;;;4.57;;
67930;SDS011;63902;52.000;5.954;2023-08-30T03:06:28;9.90;;;4.43;;
67930;SDS011;63902;52.000;5.954;2023-08-30T03:07:28;9.30;;;4.82;;
67930;SDS011;63902;52.000;5.954;2023-08-30T03:08:29;8.32;;;4.57;;
67930;SDS011;63902;52.000;5.954;2023-08-30T03:09:29;6.90;;;4.95;;
67930;SDS011;63902;52.000;5.954;2023-08-30T03:10:30;6.63;;;4.65;;
67930;SDS011;63902;52.000;5.954;2023-08-30T03:11:30;7.05;;;4.75;;
67930;SDS011;63902;52.000;5.954;2023-08-30T03:12:31;8.18;;;5.00;;
67930;SDS011;63902;52.000;5.954;2023-08-30T03:13:31;9.38;;;4.82;;
67930;SDS011;63902;52.000;5.954;2023-08-30T03:14:33;10.88;;;4.97;;
67930;SDS011;63902;52.000;5.954;2023-08-30T03:15:34;7.72;;;5.03;;
67930;SDS011;63902;52.000;5.954;2023-08-30T03:16:34;10.88;;;4.97;;
67930;SDS011;63902;52.000;5.954;2023-08-30T03:17:35;9.40;;;5.38;;
67930;SDS011;63902;52.000;5.954;2023-08-30T03:18:35;6.43;;;4.60;;
67930;SDS011;63902;52.000;5.954;2023-08-30T03:19:36;7.72;;;5.15;;
67930;SDS011;63902;52.000;5.954;2023-08-30T03:20:38;8.27;;;4.70;;
67930;SDS011;63902;52.000;5.954;2023-08-30T03:21:38;7.18;;;5.13;;
67930;SDS011;63902;52.000;5.954;2023-08-30T03:22:39;7.55;;;4.60;;
67930;SDS011;63902;52.000;5.954;2023-08-30T03:23:41;7.53;;;4.93;;
67930;SDS011;63902;52.000;5.954;2023-08-30T03:24:42;7.38;;;4.75;;
67930;SDS011;63902;52.000;5.954;2023-08-30T03:25:42;6.22;;;4.80;;
67930;SDS011;63902;52.000;5.954;2023-08-30T03:26:43;12.57;;;4.82;;
67930;SDS011;63902;52.000;5.954;2023-08-30T03:27:43;7.18;;;4.55;;
67930;SDS011;63902;52.000;5.954;2023-08-30T03:28:44;9.15;;;4.55;;
67930;SDS011;63902;52.000;5.954;2023-08-30T03:29:46;6.93;;;4.47;;
67930;SDS011;63902;52.000;5.954;2023-08-30T03:30:47;9.32;;;4.80;;
67930;SDS011;63902;52.000;5.954;2023-08-30T03:31:47;6.93;;;4.55;;
67930;SDS011;63902;52.000;5.954;2023-08-30T03:32:48;6.10;;;4.30;;
67930;SDS011;63902;52.000;5.954;2023-08-30T03:33:48;7.45;;;4.80;;
67930;SDS011;63902;52.000;5.954;2023-08-30T03:34:49;8.70;;;4.70;;
67930;SDS011;63902;52.000;5.954;2023-08-30T03:35:49;7.03;;;5.07;;
67930;SDS011;63902;52.000;5.954;2023-08-30T03:36:50;6.53;;;4.90;;
67930;SDS011;63902;52.000;5.954;2023-08-30T03:37:50;8.77;;;5.38;;
67930;SDS011;63902;52.000;5.954;2023-08-30T03:38:51;6.90;;;4.57;;
67930;SDS011;63902;52.000;5.954;2023-08-30T03:39:51;9.25;;;4.90;;
67930;SDS011;63902;52.000;5.954;2023-08-30T03:40:52;7.30;;;4.88;;
67930;SDS011;63902;52.000;5.954;2023-08-30T03:41:53;8.85;;;6.05;;
67930;SDS011;63902;52.000;5.954;2023-08-30T03:42:54;8.50;;;4.80;;
67930;SDS011;63902;52.000;5.954;2023-08-30T03:43:54;8.95;;;5.55;;
67930;SDS011;63902;52.000;5.954;2023-08-30T03:44:56;7.18;;;4.47;;
67930;SDS011;63902;52.000;5.954;2023-08-30T03:45:57;8.70;;;5.18;;
67930;SDS011;63902;52.000;5.954;2023-08-30T03:46:58;7.35;;;5.00;;
67930;SDS011;63902;52.000;5.954;2023-08-30T03:47:58;10.15;;;5.50;;
67930;SDS011;63902;52.000;5.954;2023-08-30T03:48:59;7.97;;;4.78;;
67930;SDS011;63902;52.000;5.954;2023-08-30T03:49:59;10.30;;;5.30;;
67930;SDS011;63902;52.000;5.954;2023-08-30T03:51:00;6.85;;;4.88;;
67930;SDS011;63902;52.000;5.954;2023-08-30T03:52:00;8.15;;;5.10;;
67930;SDS011;63902;52.000;5.954;2023-08-30T03:53:01;7.07;;;5.20;;
67930;SDS011;63902;52.000;5.954;2023-08-30T03:54:02;7.60;;;4.82;;
67930;SDS011;63902;52.000;5.954;2023-08-30T03:55:02;11.07;;;5.43;;
67930;SDS011;63902;52.000;5.954;2023-08-30T03:56:03;8.80;;;5.00;;
67930;SDS011;63902;52.000;5.954;2023-08-30T03:57:04;10.82;;;5.43;;
67930;SDS011;63902;52.000;5.954;2023-08-30T03:58:05;10.73;;;5.75;;
67930;SDS011;63902;52.000;5.954;2023-08-30T03:59:05;9.27;;;5.57;;
67930;SDS011;63902;52.000;5.954;2023-08-30T04:00:08;9.82;;;5.20;;
67930;SDS011;63902;52.000;5.954;2023-08-30T04:01:09;8.52;;;5.53;;
67930;SDS011;63902;52.000;5.954;2023-08-30T04:02:09;8.07;;;4.88;;
67930;SDS011;63902;52.000;5.954;2023-08-30T04:03:10;7.35;;;4.65;;
67930;SDS011;63902;52.000;5.954;2023-08-30T04:04:13;9.07;;;5.43;;
67930;SDS011;63902;52.000;5.954;2023-08-30T04:05:13;8.80;;;5.22;;
67930;SDS011;63902;52.000;5.954;2023-08-30T04:06:14;10.23;;;5.20;;
67930;SDS011;63902;52.000;5.954;2023-08-30T04:07:14;9.38;;;5.15;;
67930;SDS011;63902;52.000;5.954;2023-08-30T04:08:15;8.82;;;4.95;;
67930;SDS011;63902;52.000;5.954;2023-08-30T04:09:16;8.90;;;5.38;;
67930;SDS011;63902;52.000;5.954;2023-08-30T04:10:16;8.20;;;5.18;;
67930;SDS011;63902;52.000;5.954;2023-08-30T04:11:17;7.50;;;5.20;;
67930;SDS011;63902;52.000;5.954;2023-08-30T04:12:17;8.07;;;5.38;;
67930;SDS011;63902;52.000;5.954;2023-08-30T04:13:18;5.97;;;4.38;;
67930;SDS011;63902;52.000;5.954;2023-08-30T04:14:18;7.35;;;5.03;;
67930;SDS011;63902;52.000;5.954;2023-08-30T04:15:20;7.10;;;4.85;;
67930;SDS011;63902;52.000;5.954;2023-08-30T04:16:21;7.32;;;4.75;;
67930;SDS011;63902;52.000;5.954;2023-08-30T04:17:21;8.18;;;4.53;;
67930;SDS011;63902;52.000;5.954;2023-08-30T04:18:22;11.75;;;4.53;;
67930;SDS011;63902;52.000;5.954;2023-08-30T04:19:22;6.22;;;4.68;;
67930;SDS011;63902;52.000;5.954;2023-08-30T04:20:23;8.52;;;5.07;;
67930;SDS011;63902;52.000;5.954;2023-08-30T04:21:23;7.50;;;5.03;;
67930;SDS011;63902;52.000;5.954;2023-08-30T04:22:24;5.72;;;4.20;;
67930;SDS011;63902;52.000;5.954;2023-08-30T04:23:25;6.63;;;4.45;;
67930;SDS011;63902;52.000;5.954;2023-08-30T04:24:25;8.45;;;4.45;;
67930;SDS011;63902;52.000;5.954;2023-08-30T04:25:26;5.47;;;4.18;;
67930;SDS011;63902;52.000;5.954;2023-08-30T04:26:26;6.20;;;4.28;;
67930;SDS011;63902;52.000;5.954;2023-08-30T04:27:26;6.72;;;4.68;;
67930;SDS011;63902;52.000;5.954;2023-08-30T04:28:27;8.68;;;5.43;;
67930;SDS011;63902;52.000;5.954;2023-08-30T04:29:28;7.63;;;4.70;;
67930;SDS011;63902;52.000;5.954;2023-08-30T04:30:30;7.78;;;4.80;;
67930;SDS011;63902;52.000;5.954;2023-08-30T04:31:30;8.45;;;4.40;;
67930;SDS011;63902;52.000;5.954;2023-08-30T04:32:31;8.35;;;4.72;;
67930;SDS011;63902;52.000;5.954;2023-08-30T04:33:31;8.50;;;4.47;;
67930;SDS011;63902;52.000;5.954;2023-08-30T04:34:32;6.55;;;4.30;;
67930;SDS011;63902;52.000;5.954;2023-08-30T04:35:32;10.70;;;4.03;;
67930;SDS011;63902;52.000;5.954;2023-08-30T04:36:33;11.57;;;4.63;;
67930;SDS011;63902;52.000;5.954;2023-08-30T04:37:33;8.68;;;4.43;;
67930;SDS011;63902;52.000;5.954;2023-08-30T04:38:34;8.48;;;4.53;;
67930;SDS011;63902;52.000;5.954;2023-08-30T04:39:34;5.68;;;3.97;;
67930;SDS011;63902;52.000;5.954;2023-08-30T04:40:35;7.63;;;4.43;;
67930;SDS011;63902;52.000;5.954;2023-08-30T04:41:35;6.63;;;4.43;;
67930;SDS011;63902;52.000;5.954;2023-08-30T04:42:36;8.15;;;4.75;;
67930;SDS011;63902;52.000;5.954;2023-08-30T04:43:37;6.93;;;4.40;;
67930;SDS011;63902;52.000;5.954;2023-08-30T04:44:38;7.82;;;4.75;;
67930;SDS011;63902;52.000;5.954;2023-08-30T04:45:40;11.70;;;4.80;;
67930;SDS011;63902;52.000;5.954;2023-08-30T04:46:40;8.38;;;4.60;;
67930;SDS011;63902;52.000;5.954;2023-08-30T04:47:41;8.52;;;5.15;;
67930;SDS011;63902;52.000;5.954;2023-08-30T04:48:41;7.03;;;4.45;;
67930;SDS011;63902;52.000;5.954;2023-08-30T04:49:42;7.00;;;4.55;;
67930;SDS011;63902;52.000;5.954;2023-08-30T04:50:42;7.60;;;4.65;;
67930;SDS011;63902;52.000;5.954;2023-08-30T04:51:43;6.30;;;4.22;;
67930;SDS011;63902;52.000;5.954;2023-08-30T04:52:43;6.95;;;4.72;;
67930;SDS011;63902;52.000;5.954;2023-08-30T04:53:44;9.02;;;5.32;;
67930;SDS011;63902;52.000;5.954;2023-08-30T04:54:44;7.93;;;5.30;;
67930;SDS011;63902;52.000;5.954;2023-08-30T04:55:45;7.70;;;4.45;;
67930;SDS011;63902;52.000;5.954;2023-08-30T04:56:45;7.95;;;4.82;;
67930;SDS011;63902;52.000;5.954;2023-08-30T04:57:46;7.90;;;5.35;;
67930;SDS011;63902;52.000;5.954;2023-08-30T04:58:46;8.30;;;5.28;;
67930;SDS011;63902;52.000;5.954;2023-08-30T04:59:47;11.35;;;5.53;;
67930;SDS011;63902;52.000;5.954;2023-08-30T05:00:49;9.45;;;5.32;;
67930;SDS011;63902;52.000;5.954;2023-08-30T05:01:49;6.50;;;4.90;;
67930;SDS011;63902;52.000;5.954;2023-08-30T05:02:50;10.85;;;5.50;;
67930;SDS011;63902;52.000;5.954;2023-08-30T05:03:50;7.07;;;5.10;;
67930;SDS011;63902;52.000;5.954;2023-08-30T05:04:51;7.40;;;4.68;;
67930;SDS011;63902;52.000;5.954;2023-08-30T05:05:51;11.43;;;5.60;;
67930;SDS011;63902;52.000;5.954;2023-08-30T05:06:52;8.88;;;5.40;;
67930;SDS011;63902;52.000;5.954;2023-08-30T05:07:52;8.82;;;5.55;;
67930;SDS011;63902;52.000;5.954;2023-08-30T05:08:53;8.82;;;4.80;;
67930;SDS011;63902;52.000;5.954;2023-08-30T05:09:54;7.78;;;4.80;;
67930;SDS011;63902;52.000;5.954;2023-08-30T05:10:54;7.57;;;5.15;;
67930;SDS011;63902;52.000;5.954;2023-08-30T05:11:55;8.07;;;4.93;;
67930;SDS011;63902;52.000;5.954;2023-08-30T05:12:55;9.50;;;5.18;;
67930;SDS011;63902;52.000;5.954;2023-08-30T05:13:56;7.65;;;5.15;;
67930;SDS011;63902;52.000;5.954;2023-08-30T05:14:57;8.65;;;5.55;;
67930;SDS011;63902;52.000;5.954;2023-08-30T05:15:59;10.50;;;5.30;;
67930;SDS011;63902;52.000;5.954;2023-08-30T05:16:59;12.40;;;5.65;;
67930;SDS011;63902;52.000;5.954;2023-08-30T05:18:00;12.52;;;5.97;;
67930;SDS011;63902;52.000;5.954;2023-08-30T05:19:00;11.05;;;5.97;;
67930;SDS011;63902;52.000;5.954;2023-08-30T05:20:01;8.13;;;5.30;;
67930;SDS011;63902;52.000;5.954;2023-08-30T05:21:01;9.88;;;5.40;;
67930;SDS011;63902;52.000;5.954;2023-08-30T05:22:02;9.15;;;5.15;;
67930;SDS011;63902;52.000;5.954;2023-08-30T05:23:03;7.38;;;5.18;;
67930;SDS011;63902;52.000;5.954;2023-08-30T05:24:04;8.30;;;5.63;;
67930;SDS011;63902;52.000;5.954;2023-08-30T05:25:05;9.50;;;5.28;;
67930;SDS011;63902;52.000;5.954;2023-08-30T05:26:05;9.18;;;5.60;;
67930;SDS011;63902;52.000;5.954;2023-08-30T05:27:06;8.98;;;5.30;;
67930;SDS011;63902;52.000;5.954;2023-08-30T05:28:06;8.60;;;5.97;;
67930;SDS011;63902;52.000;5.954;2023-08-30T05:29:07;12.27;;;6.72;;
67930;SDS011;63902;52.000;5.954;2023-08-30T05:30:08;9.32;;;6.13;;
67930;SDS011;63902;52.000;5.954;2023-08-30T05:31:10;10.75;;;6.07;;
67930;SDS011;63902;52.000;5.954;2023-08-30T05:32:11;9.95;;;5.80;;
67930;SDS011;63902;52.000;5.954;2023-08-30T05:33:11;9.23;;;6.25;;
67930;SDS011;63902;52.000;5.954;2023-08-30T05:34:12;9.23;;;5.65;;
67930;SDS011;63902;52.000;5.954;2023-08-30T05:35:12;9.48;;;5.82;;
67930;SDS011;63902;52.000;5.954;2023-08-30T05:36:13;10.13;;;5.78;;
67930;SDS011;63902;52.000;5.954;2023-08-30T05:37:14;10.60;;;6.00;;
67930;SDS011;63902;52.000;5.954;2023-08-30T05:38:14;10.50;;;6.72;;
67930;SDS011;63902;52.000;5.954;2023-08-30T05:39:15;9.65;;;5.82;;
67930;SDS011;63902;52.000;5.954;2023-08-30T05:40:15;9.35;;;6.28;;
67930;SDS011;63902;52.000;5.954;2023-08-30T05:41:16;10.07;;;6.43;;
67930;SDS011;63902;52.000;5.954;2023-08-30T05:42:16;10.45;;;6.45;;
67930;SDS011;63902;52.000;5.954;2023-08-30T05:43:17;11.73;;;6.68;;
67930;SDS011;63902;52.000;5.954;2023-08-30T05:44:17;12.52;;;7.05;;
67930;SDS011;63902;52.000;5.954;2023-08-30T05:45:18;11.95;;;6.57;;
67930;SDS011;63902;52.000;5.954;2023-08-30T05:46:20;15.27;;;6.97;;
67930;SDS011;63902;52.000;5.954;2023-08-30T05:47:20;10.40;;;6.97;;
67930;SDS011;63902;52.000;5.954;2023-08-30T05:48:21;12.73;;;7.40;;
67930;SDS011;63902;52.000;5.954;2023-08-30T05:49:22;10.23;;;6.60;;
67930;SDS011;63902;52.000;5.954;2023-08-30T05:50:22;11.38;;;7.13;;
67930;SDS011;63902;52.000;5.954;2023-08-30T05:51:23;13.95;;;6.18;;
67930;SDS011;63902;52.000;5.954;2023-08-30T05:52:23;10.65;;;6.50;;
67930;SDS011;63902;52.000;5.954;2023-08-30T05:53:24;11.07;;;6.53;;
67930;SDS011;63902;52.000;5.954;2023-08-30T05:54:24;11.95;;;6.95;;
67930;SDS011;63902;52.000;5.954;2023-08-30T05:55:25;13.02;;;6.28;;
67930;SDS011;63902;52.000;5.954;2023-08-30T05:56:25;10.57;;;6.40;;
67930;SDS011;63902;52.000;5.954;2023-08-30T05:57:26;10.20;;;6.93;;
67930;SDS011;63902;52.000;5.954;2023-08-30T05:58:26;12.10;;;7.03;;
67930;SDS011;63902;52.000;5.954;2023-08-30T05:59:27;12.55;;;7.32;;
67930;SDS011;63902;52.000;5.954;2023-08-30T06:00:27;8.98;;;6.85;;
67930;SDS011;63902;52.000;5.954;2023-08-30T06:01:29;13.95;;;6.55;;
67930;SDS011;63902;52.000;5.954;2023-08-30T06:02:30;12.70;;;6.68;;
67930;SDS011;63902;52.000;5.954;2023-08-30T06:03:31;9.77;;;6.55;;
67930;SDS011;63902;52.000;5.954;2023-08-30T06:04:31;12.80;;;7.60;;
67930;SDS011;63902;52.000;5.954;2023-08-30T06:05:32;10.52;;;6.72;;
67930;SDS011;63902;52.000;5.954;2023-08-30T06:06:33;12.40;;;7.88;;
67930;SDS011;63902;52.000;5.954;2023-08-30T06:07:33;11.95;;;6.93;;
67930;SDS011;63902;52.000;5.954;2023-08-30T06:08:34;13.10;;;7.10;;
67930;SDS011;63902;52.000;5.954;2023-08-30T06:09:35;13.00;;;8.05;;
67930;SDS011;63902;52.000;5.954;2023-08-30T06:10:35;13.30;;;7.53;;
67930;SDS011;63902;52.000;5.954;2023-08-30T06:11:36;13.65;;;8.20;;
67930;SDS011;63902;52.000;5.954;2023-08-30T06:12:37;11.13;;;7.80;;
67930;SDS011;63902;52.000;5.954;2023-08-30T06:13:37;18.70;;;7.65;;
67930;SDS011;63902;52.000;5.954;2023-08-30T06:14:38;13.10;;;8.73;;
67930;SDS011;63902;52.000;5.954;2023-08-30T06:15:38;12.20;;;7.93;;
67930;SDS011;63902;52.000;5.954;2023-08-30T06:16:40;13.07;;;8.23;;
67930;SDS011;63902;52.000;5.954;2023-08-30T06:17:41;13.27;;;9.30;;
67930;SDS011;63902;52.000;5.954;2023-08-30T06:18:42;15.25;;;8.88;;
67930;SDS011;63902;52.000;5.954;2023-08-30T06:19:42;12.48;;;8.85;;
67930;SDS011;63902;52.000;5.954;2023-08-30T06:20:43;13.15;;;9.05;;
67930;SDS011;63902;52.000;5.954;2023-08-30T06:21:43;13.10;;;8.85;;
67930;SDS011;63902;52.000;5.954;2023-08-30T06:22:44;12.98;;;8.35;;
67930;SDS011;63902;52.000;5.954;2023-08-30T06:23:45;14.85;;;9.35;;
67930;SDS011;63902;52.000;5.954;2023-08-30T06:24:45;17.02;;;9.60;;
67930;SDS011;63902;52.000;5.954;2023-08-30T06:25:52;13.13;;;8.27;;
67930;SDS011;63902;52.000;5.954;2023-08-30T06:26:53;14.15;;;8.95;;
67930;SDS011;63902;52.000;5.954;2023-08-30T06:27:55;12.63;;;9.65;;
67930;SDS011;63902;52.000;5.954;2023-08-30T06:28:56;16.40;;;9.90;;
67930;SDS011;63902;52.000;5.954;2023-08-30T06:29:56;14.13;;;9.10;;
67930;SDS011;63902;52.000;5.954;2023-08-30T06:30:57;17.17;;;9.80;;
67930;SDS011;63902;52.000;5.954;2023-08-30T06:31:59;15.65;;;10.60;;
67930;SDS011;63902;52.000;5.954;2023-08-30T06:32:59;16.98;;;10.75;;
67930;SDS011;63902;52.000;5.954;2023-08-30T06:34:00;15.07;;;10.43;;
67930;SDS011;63902;52.000;5.954;2023-08-30T06:35:00;12.55;;;9.27;;
67930;SDS011;63902;52.000;5.954;2023-08-30T06:36:01;13.75;;;9.95;;
67930;SDS011;63902;52.000;5.954;2023-08-30T06:37:02;14.88;;;10.10;;
67930;SDS011;63902;52.000;5.954;2023-08-30T06:38:03;14.27;;;9.95;;
67930;SDS011;63902;52.000;5.954;2023-08-30T06:39:03;13.32;;;9.00;;
67930;SDS011;63902;52.000;5.954;2023-08-30T06:40:04;19.52;;;10.68;;
67930;SDS011;63902;52.000;5.954;2023-08-30T06:41:06;18.30;;;10.73;;
67930;SDS011;63902;52.000;5.954;2023-08-30T06:42:07;17.80;;;10.65;;
67930;SDS011;63902;52.000;5.954;2023-08-30T06:43:07;15.68;;;10.13;;
67930;SDS011;63902;52.000;5.954;2023-08-30T06:44:08;14.35;;;8.80;;
67930;SDS011;63902;52.000;5.954;2023-08-30T06:45:08;13.93;;;9.45;;
67930;SDS011;63902;52.000;5.954;2023-08-30T06:46:09;19.35;;;10.32;;
67930;SDS011;63902;52.000;5.954;2023-08-30T06:47:11;13.23;;;8.95;;